Time;durP1;ratioP1;P1;durP2;ratioP2;P2;SDS_P1;SDS_P2;PMS_P1;PMS_P2;Temp;Humidity;BMP_temperature;BMP_pressure;BME280_temperature;BME280_humidity;BME280_pressure;Samples;Min_cycle;Max_cycle;Signal;HPM_P1;HPM_P2
2022/03/13 00:00:26;;;;;;;19.63;11.93;;;6.70;99.90;;;;;;5094225;28;20043;-75
2022/03/13 00:02:54;;;;;;;20.98;12.43;;;6.70;99.90;;;;;;5095494;28;20044;-74
2022/03/13 00:05:20;;;;;;;24.20;12.32;;;6.70;99.90;;;;;;5095240;28;20086;-75
2022/03/13 00:07:51;;;;;;;20.45;12.88;;;6.70;99.90;;;;;;5094295;28;20055;-74
2022/03/13 00:10:19;;;;;;;17.20;11.82;;;6.70;99.90;;;;;;5094864;28;20139;-75
2022/03/13 00:12:47;;;;;;;19.50;12.77;;;6.70;99.90;;;;;;5094538;28;20484;-74
2022/03/13 00:15:14;;;;;;;21.38;13.27;;;6.60;99.90;;;;;;5093935;28;20113;-73
2022/03/13 00:17:40;;;;;;;20.08;12.82;;;6.70;99.90;;;;;;5095096;28;20105;-74
2022/03/13 00:20:08;;;;;;;17.87;11.87;;;6.60;99.90;;;;;;5095039;28;20369;-75
2022/03/13 00:22:35;;;;;;;19.30;12.00;;;6.60;99.90;;;;;;5095123;28;20428;-75
2022/03/13 00:25:03;;;;;;;19.00;11.90;;;6.60;99.90;;;;;;5095054;28;20075;-74
2022/03/13 00:27:34;;;;;;;17.90;11.82;;;6.60;99.90;;;;;;5076780;28;20123;-75
2022/03/13 00:29:59;;;;;;;18.90;12.65;;;6.70;99.90;;;;;;5095191;28;20388;-73
2022/03/13 00:32:25;;;;;;;19.42;11.13;;;6.60;99.90;;;;;;5093856;28;20044;-74
2022/03/13 00:34:51;;;;;;;22.15;12.73;;;6.60;99.90;;;;;;5094812;28;20040;-74
2022/03/13 00:37:17;;;;;;;21.80;12.00;;;6.60;99.90;;;;;;5094818;28;20044;-72
2022/03/13 00:39:44;;;;;;;17.80;12.13;;;6.60;99.90;;;;;;5094731;28;20079;-74
2022/03/13 00:42:12;;;;;;;17.00;11.57;;;6.60;99.90;;;;;;5094817;28;20044;-73
2022/03/13 00:44:38;;;;;;;19.92;12.65;;;6.50;99.90;;;;;;5093389;28;20123;-73
2022/03/13 00:47:05;;;;;;;19.83;12.15;;;6.50;99.90;;;;;;5094552;28;20177;-74
2022/03/13 00:49:31;;;;;;;18.92;12.57;;;6.50;99.90;;;;;;5094505;28;20044;-73
2022/03/13 00:51:59;;;;;;;19.98;12.85;;;6.50;99.90;;;;;;5094885;28;20055;-75
2022/03/13 00:54:24;;;;;;;20.95;12.73;;;6.50;99.90;;;;;;5094419;28;20044;-75
2022/03/13 00:56:50;;;;;;;19.58;12.50;;;6.50;99.90;;;;;;5094497;28;20032;-73
2022/03/13 00:59:16;;;;;;;20.73;12.02;;;6.50;99.90;;;;;;5094330;28;20480;-75
2022/03/13 01:01:41;;;;;;;20.38;12.25;;;6.50;99.90;;;;;;5094376;28;20036;-75
2022/03/13 01:04:07;;;;;;;20.48;12.98;;;6.60;99.90;;;;;;5094198;28;20040;-75
2022/03/13 01:06:33;;;;;;;22.53;12.10;;;6.60;99.90;;;;;;5094286;28;20388;-75
2022/03/13 01:08:58;;;;;;;18.02;11.95;;;6.60;99.90;;;;;;5093997;28;20044;-74
2022/03/13 01:11:24;;;;;;;20.63;12.70;;;6.60;99.90;;;;;;5094378;28;20055;-75
2022/03/13 01:13:51;;;;;;;19.58;12.90;;;6.60;99.90;;;;;;5093908;28;20478;-75
2022/03/13 01:16:29;;;;;;;21.13;12.60;;;6.60;99.90;;;;;;5093340;28;20052;-75
2022/03/13 01:18:59;;;;;;;18.75;12.02;;;6.60;99.90;;;;;;5076887;28;20488;-74
2022/03/13 01:21:26;;;;;;;22.27;12.88;;;6.60;99.90;;;;;;5094098;28;20127;-75
2022/03/13 01:24:00;;;;;;;21.38;12.15;;;6.60;99.90;;;;;;5093876;28;20468;-73
2022/03/13 01:26:26;;;;;;;17.05;11.57;;;6.70;99.90;;;;;;5093025;28;20115;-75
2022/03/13 01:28:56;;;;;;;21.00;12.05;;;6.70;99.90;;;;;;5094044;28;20173;-73
2022/03/13 01:31:33;;;;;;;22.23;12.90;;;6.70;99.90;;;;;;5094014;28;20087;-74
2022/03/13 01:34:00;;;;;;;18.95;12.70;;;6.70;99.90;;;;;;5094162;28;20177;-74
2022/03/13 01:36:25;;;;;;;22.52;12.63;;;6.70;99.90;;;;;;5094226;28;20048;-73
2022/03/13 01:38:57;;;;;;;18.75;11.75;;;6.60;99.90;;;;;;5093967;28;20051;-73
2022/03/13 01:41:24;;;;;;;21.88;12.27;;;6.60;99.90;;;;;;5093842;28;20428;-75
2022/03/13 01:43:50;;;;;;;18.88;12.10;;;6.70;99.90;;;;;;5092832;28;20060;-76
2022/03/13 01:46:16;;;;;;;17.35;11.60;;;6.70;99.90;;;;;;5093099;28;20055;-73
2022/03/13 01:49:05;;;;;;;20.77;12.13;;;6.70;99.90;;;;;;5094135;28;20496;-75
2022/03/13 01:51:32;;;;;;;18.15;11.70;;;6.70;99.90;;;;;;5094050;28;20052;-75
2022/03/13 01:54:01;;;;;;;22.15;12.73;;;6.70;99.90;;;;;;5093678;28;20051;-75
2022/03/13 01:56:29;;;;;;;17.30;11.38;;;6.70;99.90;;;;;;5093815;28;20040;-75
2022/03/13 01:58:55;;;;;;;24.25;12.60;;;6.70;99.90;;;;;;5093332;28;20054;-75
2022/03/13 02:01:23;;;;;;;20.65;12.20;;;6.70;99.90;;;;;;5092507;28;20561;-73
2022/03/13 02:03:49;;;;;;;20.60;12.68;;;6.70;99.90;;;;;;5097764;28;20040;-75
2022/03/13 02:06:16;;;;;;;21.40;12.25;;;6.70;99.90;;;;;;5097772;28;20044;-74
2022/03/13 02:08:44;;;;;;;20.70;12.10;;;6.60;99.90;;;;;;5096285;28;20522;-74
2022/03/13 02:11:14;;;;;;;17.20;11.93;;;6.60;99.90;;;;;;5096124;28;20097;-75
2022/03/13 02:13:39;;;;;;;19.92;11.70;;;6.60;99.90;;;;;;5097252;28;20051;-75
2022/03/13 02:16:06;;;;;;;20.02;12.48;;;6.50;99.90;;;;;;5097528;28;20134;-75
2022/03/13 02:18:32;;;;;;;20.55;12.57;;;6.50;99.90;;;;;;5097521;28;20069;-75
2022/03/13 02:20:58;;;;;;;19.67;12.38;;;6.50;99.90;;;;;;5096343;28;20040;-75
2022/03/13 02:23:28;;;;;;;20.63;12.98;;;6.50;99.90;;;;;;5096447;28;20088;-75
2022/03/13 02:26:00;;;;;;;19.10;13.02;;;6.40;99.90;;;;;;5097411;28;20055;-75
2022/03/13 02:28:32;;;;;;;18.58;12.48;;;6.40;99.90;;;;;;5097882;28;20067;-75
2022/03/13 02:31:00;;;;;;;19.92;12.27;;;6.40;99.90;;;;;;5097386;28;20055;-75
2022/03/13 02:33:25;;;;;;;21.92;13.07;;;6.40;99.90;;;;;;5097175;28;20051;-76
2022/03/13 02:36:00;;;;;;;20.30;12.27;;;6.30;99.90;;;;;;5097120;28;20044;-75
2022/03/13 02:38:27;;;;;;;19.02;12.43;;;6.30;99.90;;;;;;5097233;28;20173;-73
2022/03/13 02:40:54;;;;;;;20.67;12.65;;;6.20;99.90;;;;;;5096494;28;20083;-74
2022/03/13 02:43:20;;;;;;;;;;;6.20;99.90;;;;;;5097528;28;20392;-75
2022/03/13 02:45:45;;;;;;;19.73;12.40;;;6.20;99.90;;;;;;5097036;28;19920;-75
2022/03/13 02:48:12;;;;;;;21.30;13.02;;;6.10;99.90;;;;;;5097067;28;20040;-73
2022/03/13 02:50:39;;;;;;;20.88;13.05;;;6.10;99.90;;;;;;5095652;28;20075;-75
2022/03/13 02:53:06;;;;;;;22.15;12.75;;;6.10;99.90;;;;;;5096760;28;20077;-75
2022/03/13 02:55:32;;;;;;;;;;;6.10;99.90;;;;;;5096988;28;20132;-75
2022/03/13 02:57:58;;;;;;;22.40;13.35;;;6.10;99.90;;;;;;5096671;28;19976;-74
2022/03/13 03:00:43;;;;;;;21.13;13.38;;;6.00;99.90;;;;;;5095481;28;20109;-74
2022/03/13 03:03:11;;;;;;;23.73;13.45;;;6.00;99.90;;;;;;5096626;28;20101;-74
2022/03/13 03:05:37;;;;;;;24.73;13.82;;;6.00;99.90;;;;;;5096464;28;20097;-74
2022/03/13 03:08:03;;;;;;;25.70;14.67;;;5.90;99.90;;;;;;5096557;28;20048;-75
2022/03/13 03:10:29;;;;;;;22.50;13.55;;;5.90;99.90;;;;;;5096581;28;20331;-74
2022/03/13 03:12:55;;;;;;;25.27;14.25;;;5.90;99.90;;;;;;5096032;28;20131;-75
2022/03/13 03:15:23;;;;;;;19.95;13.07;;;5.80;99.90;;;;;;5095706;28;20079;-74
2022/03/13 03:17:48;;;;;;;27.98;14.95;;;5.80;99.90;;;;;;5096525;28;20119;-73
2022/03/13 03:20:15;;;;;;;23.27;14.00;;;5.80;99.90;;;;;;5096421;28;20051;-74
2022/03/13 03:22:40;;;;;;;21.27;13.43;;;5.70;99.90;;;;;;5096590;28;20140;-74
2022/03/13 03:25:07;;;;;;;21.23;14.10;;;5.70;99.90;;;;;;5096665;28;20369;-75
2022/03/13 03:27:32;;;;;;;21.60;13.38;;;5.70;99.90;;;;;;5095418;28;20532;-73
2022/03/13 03:29:59;;;;;;;20.55;13.50;;;5.60;99.90;;;;;;5096210;28;20122;-74
2022/03/13 03:32:25;;;;;;;22.42;13.18;;;5.50;99.90;;;;;;5095922;28;20055;-75
2022/03/13 03:34:51;;;;;;;21.42;13.85;;;5.50;99.90;;;;;;5095292;28;20048;-75
2022/03/13 03:37:16;;;;;;;20.20;13.10;;;5.40;99.90;;;;;;5094954;28;20044;-73
2022/03/13 03:39:42;;;;;;;21.25;13.55;;;5.40;99.90;;;;;;5095212;28;20051;-74
2022/03/13 03:42:07;;;;;;;20.52;13.23;;;5.30;99.90;;;;;;5095868;28;20059;-74
2022/03/13 03:44:33;;;;;;;22.98;13.15;;;5.30;99.90;;;;;;5094643;28;20428;-75
2022/03/13 03:46:59;;;;;;;19.17;12.18;;;5.20;99.90;;;;;;5095801;28;20369;-73
2022/03/13 03:49:25;;;;;;;23.13;13.25;;;5.20;99.90;;;;;;5095858;28;20404;-75
2022/03/13 03:51:52;;;;;;;22.38;12.52;;;5.20;99.90;;;;;;5095616;28;20040;-75
2022/03/13 03:54:17;;;;;;;20.42;12.48;;;5.10;99.90;;;;;;5095571;28;20100;-75
2022/03/13 03:56:43;;;;;;;20.25;12.70;;;5.00;99.90;;;;;;5095640;28;20130;-75
2022/03/13 03:59:09;;;;;;;19.27;12.05;;;5.00;99.90;;;;;;5096507;28;20071;-75
2022/03/13 04:01:39;;;;;;;20.77;12.68;;;4.90;99.90;;;;;;5096004;28;20040;-75
2022/03/13 04:04:06;;;;;;;20.65;11.77;;;4.90;99.90;;;;;;5096655;28;20119;-73
2022/03/13 04:06:33;;;;;;;20.60;12.50;;;4.90;99.90;;;;;;5094914;28;20047;-74
2022/03/13 04:09:00;;;;;;;21.40;11.45;;;4.80;99.90;;;;;;5095240;28;20094;-73
2022/03/13 04:11:25;;;;;;;20.42;12.85;;;4.80;99.90;;;;;;5095915;28;20077;-74
2022/03/13 04:13:51;;;;;;;20.67;12.77;;;4.70;99.90;;;;;;5095093;28;20056;-74
2022/03/13 04:16:16;;;;;;;20.85;12.40;;;4.70;99.90;;;;;;5094086;28;20077;-73
2022/03/13 04:18:42;;;;;;;22.67;12.93;;;4.70;99.90;;;;;;5094098;28;20043;-73
2022/03/13 04:21:08;;;;;;;21.65;12.23;;;4.70;99.90;;;;;;5094883;28;20043;-75
2022/03/13 04:23:35;;;;;;;22.20;12.68;;;4.60;99.90;;;;;;5093804;28;20047;-74
2022/03/13 04:26:02;;;;;;;25.13;12.38;;;4.60;99.90;;;;;;5094521;28;20044;-73
2022/03/13 04:28:28;;;;;;;18.30;11.75;;;4.60;99.90;;;;;;5094720;28;20385;-74
2022/03/13 04:30:57;;;;;;;18.25;11.57;;;4.50;99.90;;;;;;5093609;28;20055;-74
2022/03/13 04:33:24;;;;;;;20.70;11.15;;;4.50;99.90;;;;;;5094842;28;20040;-73
2022/03/13 04:35:49;;;;;;;18.80;12.07;;;4.40;99.90;;;;;;5094854;28;20036;-74
2022/03/13 04:38:15;;;;;;;18.15;11.10;;;4.40;99.90;;;;;;5093760;28;20050;-74
2022/03/13 04:40:41;;;;;;;21.48;11.10;;;4.40;99.90;;;;;;5093562;28;20044;-75
2022/03/13 04:43:08;;;;;;;18.33;11.13;;;4.40;99.90;;;;;;5094733;28;20044;-74
2022/03/13 04:45:34;;;;;;;19.90;12.15;;;4.40;99.90;;;;;;5093667;28;20052;-75
2022/03/13 04:48:00;;;;;;;17.25;11.10;;;4.40;99.90;;;;;;5094670;28;20083;-75
2022/03/13 04:50:26;;;;;;;18.20;11.52;;;4.40;99.90;;;;;;5094605;28;20495;-73
2022/03/13 04:52:51;;;;;;;17.40;11.35;;;4.40;99.90;;;;;;5094579;28;20126;-73
2022/03/13 04:55:18;;;;;;;17.45;11.30;;;4.40;99.90;;;;;;5094596;28;20051;-74
2022/03/13 04:57:43;;;;;;;20.77;11.57;;;4.40;99.90;;;;;;5094566;28;20083;-75
2022/03/13 05:00:10;;;;;;;16.67;10.77;;;4.40;99.90;;;;;;5094375;28;20084;-74
2022/03/13 05:02:37;;;;;;;18.23;11.67;;;4.40;99.90;;;;;;5094924;28;20079;-75
2022/03/13 05:05:03;;;;;;;19.58;11.50;;;4.30;99.90;;;;;;5094398;28;20043;-73
2022/03/13 05:07:29;;;;;;;17.92;10.45;;;4.30;99.90;;;;;;5094388;28;20141;-74
2022/03/13 05:09:55;;;;;;;18.73;11.10;;;4.30;99.90;;;;;;5094291;28;20044;-73
2022/03/13 05:12:25;;;;;;;18.67;11.18;;;4.20;99.90;;;;;;5093886;28;20305;-74
2022/03/13 05:14:50;;;;;;;16.92;11.32;;;4.20;99.90;;;;;;5092708;28;20052;-73
2022/03/13 05:17:16;;;;;;;18.08;11.18;;;4.20;99.90;;;;;;5094089;28;20476;-72
2022/03/13 05:19:42;;;;;;;16.73;10.57;;;4.20;99.90;;;;;;5093141;28;20093;-73
2022/03/13 05:22:07;;;;;;;20.58;11.63;;;4.20;99.90;;;;;;5094210;28;20441;-74
2022/03/13 05:24:33;;;;;;;21.83;11.25;;;4.10;99.90;;;;;;5093973;28;20043;-74
2022/03/13 05:26:59;;;;;;;18.60;11.95;;;4.10;99.90;;;;;;5092897;28;20044;-74
2022/03/13 05:29:24;;;;;;;16.20;10.48;;;4.10;99.90;;;;;;5093018;28;20040;-72
2022/03/13 05:31:50;;;;;;;19.42;11.63;;;4.10;99.90;;;;;;5092959;28;20040;-74
2022/03/13 05:34:15;;;;;;;18.17;11.55;;;4.00;99.90;;;;;;5094302;28;20093;-73
2022/03/13 05:36:41;;;;;;;19.10;11.25;;;4.00;99.90;;;;;;5092503;28;20044;-74
2022/03/13 05:39:07;;;;;;;20.40;11.52;;;4.00;99.90;;;;;;5093782;28;20434;-73
2022/03/13 05:41:33;;;;;;;17.48;11.05;;;3.90;99.90;;;;;;5092775;28;20051;-74
2022/03/13 05:43:59;;;;;;;19.05;10.73;;;3.90;99.90;;;;;;5093772;28;20472;-73
2022/03/13 05:46:24;;;;;;;20.23;12.20;;;3.90;99.90;;;;;;5092868;28;20039;-74
2022/03/13 05:48:50;;;;;;;19.80;10.88;;;3.90;99.90;;;;;;5093761;28;20040;-73
2022/03/13 05:51:15;;;;;;;19.67;11.05;;;3.90;99.90;;;;;;5093774;28;20093;-74
2022/03/13 05:53:41;;;;;;;19.65;10.77;;;3.90;99.90;;;;;;5092479;28;20085;-75
2022/03/13 05:56:07;;;;;;;18.63;11.27;;;3.90;99.90;;;;;;5093782;28;20391;-74
2022/03/13 05:58:33;;;;;;;16.75;11.10;;;;;;;;;;5076016;28;20051;-77
2022/03/13 06:01:06;;;;;;;17.98;11.05;;;4.00;99.90;;;;;;5093385;28;20047;-74
2022/03/13 06:03:32;;;;;;;17.65;11.20;;;4.00;99.90;;;;;;5092492;28;20048;-75
2022/03/13 06:06:02;;;;;;;14.65;10.25;;;4.10;99.90;;;;;;5093751;28;20063;-74
2022/03/13 06:08:27;;;;;;;19.02;11.30;;;4.10;99.90;;;;;;5093399;28;20052;-74
2022/03/13 06:10:53;;;;;;;17.30;10.98;;;4.10;99.90;;;;;;5093566;28;20040;-72
2022/03/13 06:13:20;;;;;;;18.92;11.52;;;4.10;99.90;;;;;;5093146;28;20056;-73
2022/03/13 06:15:46;;;;;;;18.10;11.35;;;4.20;99.90;;;;;;5093365;28;20392;-74
2022/03/13 06:18:12;;;;;;;19.20;11.13;;;4.20;99.90;;;;;;5075667;28;20037;-74
2022/03/13 06:20:37;;;;;;;15.48;10.15;;;4.20;99.90;;;;;;5093487;28;20170;-74
2022/03/13 06:23:03;;;;;;;22.75;11.25;;;4.30;99.90;;;;;;5093296;28;20119;-74
2022/03/13 06:25:29;;;;;;;17.63;11.38;;;4.30;99.90;;;;;;5093447;28;20052;-74
2022/03/13 06:27:55;;;;;;;21.73;11.90;;;4.40;99.90;;;;;;5092988;28;20052;-74
2022/03/13 06:30:21;;;;;;;19.95;11.23;;;4.40;99.90;;;;;;5093377;28;20122;-74
2022/03/13 06:32:52;;;;;;;15.75;10.05;;;4.40;99.90;;;;;;5093377;28;20036;-74
2022/03/13 06:35:20;;;;;;;18.08;10.38;;;4.40;99.90;;;;;;5092796;28;20059;-75
2022/03/13 06:37:48;;;;;;;23.90;11.48;;;4.50;99.90;;;;;;5093347;28;20446;-75
2022/03/13 06:40:16;;;;;;;17.75;10.55;;;4.50;99.90;;;;;;5093415;28;20056;-75
2022/03/13 06:42:42;;;;;;;16.40;10.50;;;4.60;99.90;;;;;;5093217;28;20065;-74
2022/03/13 06:45:10;;;;;;;17.48;9.70;;;4.70;99.90;;;;;;5092039;28;20044;-74
2022/03/13 06:47:46;;;;;;;15.50;9.95;;;4.80;99.90;;;;;;5092526;28;20055;-75
2022/03/13 06:50:17;;;;;;;15.40;9.57;;;4.80;99.90;;;;;;5096082;28;20051;-75
2022/03/13 06:52:47;;;;;;;17.42;9.73;;;5.00;99.90;;;;;;5096750;28;20412;-74
2022/03/13 06:55:14;;;;;;;16.73;9.95;;;5.00;99.90;;;;;;5096698;28;20044;-74
2022/03/13 06:57:41;;;;;;;16.08;10.07;;;5.10;99.90;;;;;;5096735;28;20119;-74
2022/03/13 07:00:07;;;;;;;;;;;5.20;99.90;;;;;;5096021;28;20066;-74
2022/03/13 07:02:33;;;;;;;20.48;9.95;;;5.40;99.90;;;;;;5095657;28;20407;-75
2022/03/13 07:04:58;;;;;;;18.10;9.60;;;5.50;99.90;;;;;;5096732;28;20119;-75
2022/03/13 07:07:24;;;;;;;14.75;9.60;;;5.60;99.90;;;;;;5096558;28;20051;-74
2022/03/13 07:09:51;;;;;;;18.63;9.80;;;5.70;99.90;;;;;;5096486;28;20044;-74
2022/03/13 07:12:18;;;;;;;16.85;9.52;;;5.70;99.90;;;;;;5096379;28;20050;-74
2022/03/13 07:14:48;;;;;;;;;;;5.70;99.90;;;;;;5096683;28;20113;-74
2022/03/13 07:17:17;;;;;;;19.00;9.50;;;5.80;99.90;;;;;;5095518;28;19969;-74
2022/03/13 07:19:44;;;;;;;15.07;8.95;;;5.80;99.90;;;;;;5096247;28;20040;-74
2022/03/13 07:22:11;;;;;;;17.52;9.55;;;5.80;99.90;;;;;;5096042;28;20044;-74
2022/03/13 07:24:37;;;;;;;18.02;10.00;;;5.90;99.90;;;;;;5096313;28;20392;-74
2022/03/13 07:27:03;;;;;;;17.27;10.20;;;5.90;99.90;;;;;;5095401;28;20439;-75
2022/03/13 07:29:29;;;;;;;14.63;8.95;;;6.00;99.90;;;;;;5061553;28;20052;-75
2022/03/13 07:31:56;;;;;;;14.70;8.85;;;6.10;99.90;;;;;;5096591;28;20040;-76
2022/03/13 07:34:26;;;;;;;15.50;9.77;;;6.20;99.90;;;;;;5078446;28;20051;-75
2022/03/13 07:36:52;;;;;;;14.88;9.15;;;6.40;99.90;;;;;;5094911;28;20052;-74
2022/03/13 07:39:19;;;;;;;18.63;9.37;;;6.30;99.90;;;;;;5096712;28;20052;-74
2022/03/13 07:41:45;;;;;;;16.35;8.60;;;6.30;99.90;;;;;;5096599;28;20044;-75
2022/03/13 07:44:11;;;;;;;15.48;8.85;;;6.40;99.90;;;;;;5096605;28;20036;-78
2022/03/13 07:46:37;;;;;;;16.30;9.13;;;6.40;99.90;;;;;;5095975;28;20043;-74
2022/03/13 07:49:02;;;;;;;17.25;9.65;;;6.50;99.90;;;;;;5095555;28;20047;-74
2022/03/13 07:51:28;;;;;;;13.02;8.70;;;6.60;99.90;;;;;;5095438;28;20079;-75
2022/03/13 07:53:54;;;;;;;15.15;9.43;;;6.70;99.90;;;;;;5094110;28;20053;-74
2022/03/13 07:56:19;;;;;;;19.65;9.15;;;6.80;99.90;;;;;;5093469;28;20086;-73
2022/03/13 07:58:45;;;;;;;14.35;8.73;;;6.90;99.90;;;;;;5095027;28;20070;-73
2022/03/13 08:01:11;;;;;;;13.88;8.52;;;7.00;99.90;;;;;;5094562;28;20047;-74
2022/03/13 08:03:38;;;;;;;14.32;9.00;;;7.10;99.90;;;;;;5095802;28;20044;-73
2022/03/13 08:06:04;;;;;;;;;;;7.10;99.90;;;;;;5096273;28;20051;-73
2022/03/13 08:08:30;;;;;;;15.25;8.52;;;7.20;99.90;;;;;;5111156;28;20363;-74
2022/03/13 08:10:57;;;;;;;15.03;8.73;;;7.40;99.90;;;;;;5094968;28;20059;-74
2022/03/13 08:13:23;;;;;;;15.32;8.98;;;7.50;99.90;;;;;;5093885;28;20496;-75
2022/03/13 08:15:48;;;;;;;12.85;8.93;;;7.70;99.90;;;;;;5094648;28;20060;-73
2022/03/13 08:18:14;;;;;;;13.98;8.85;;;7.80;99.90;;;;;;5100521;28;20483;-74
2022/03/13 08:20:40;;;;;;;14.90;8.95;;;8.10;99.90;;;;;;5103744;28;20098;-74
2022/03/13 08:23:06;;;;;;;13.52;8.95;;;8.20;99.90;;;;;;5095390;28;20535;-75
2022/03/13 08:25:31;;;;;;;18.60;9.07;;;8.30;99.90;;;;;;5095358;28;20373;-75
2022/03/13 08:27:57;;;;;;;15.57;9.13;;;8.40;99.90;;;;;;5095801;28;20122;-74
2022/03/13 08:30:25;;;;;;;15.70;9.13;;;8.40;99.90;;;;;;5093918;28;20043;-73
2022/03/13 08:32:50;;;;;;;14.05;8.85;;;8.40;99.90;;;;;;5094355;28;20396;-72
2022/03/13 08:35:17;;;;;;;13.93;9.02;;;8.40;99.90;;;;;;5095172;28;20043;-71
2022/03/13 08:37:43;;;;;;;15.60;9.23;;;8.40;99.90;;;;;;5076865;28;20052;-73
2022/03/13 08:40:10;;;;;;;13.65;8.68;;;8.50;99.90;;;;;;5094313;28;20055;-72
2022/03/13 08:42:36;;;;;;;14.80;8.00;;;8.50;99.90;;;;;;5093811;28;20036;-72
2022/03/13 08:45:01;;;;;;;15.70;9.55;;;8.60;99.90;;;;;;5094023;28;20048;-74
2022/03/13 08:47:27;;;;;;;14.70;9.73;;;8.70;99.90;;;;;;5094508;28;20071;-73
2022/03/13 08:49:53;;;;;;;14.57;8.70;;;8.70;99.90;;;;;;5093693;28;20552;-72
2022/03/13 08:52:19;;;;;;;14.98;8.45;;;8.80;99.90;;;;;;5093440;28;20052;-74
2022/03/13 08:54:45;;;;;;;15.85;8.48;;;8.90;99.90;;;;;;5076414;28;20097;-73
2022/03/13 08:57:11;;;;;;;14.70;9.13;;;9.00;99.90;;;;;;5094308;28;20130;-75
2022/03/13 08:59:37;;;;;;;14.77;8.73;;;9.10;99.90;;;;;;5093738;28;20126;-75
2022/03/13 09:02:04;;;;;;;17.73;9.10;;;9.20;99.90;;;;;;5094372;28;20050;-72
2022/03/13 09:04:30;;;;;;;14.00;8.95;;;9.30;99.90;;;;;;5093294;28;20296;-73
2022/03/13 09:06:56;;;;;;;14.18;8.88;;;9.40;99.90;;;;;;5094125;28;20044;-73
2022/03/13 09:09:22;;;;;;;14.48;8.98;;;9.50;99.90;;;;;;5093961;28;20408;-73
2022/03/13 09:11:50;;;;;;;13.38;8.55;;;9.60;99.90;;;;;;5092803;28;20055;-74
2022/03/13 09:14:16;;;;;;;14.38;8.85;;;9.70;99.90;;;;;;5093827;28;20081;-75
2022/03/13 09:16:42;;;;;;;15.07;9.05;;;9.90;99.70;;;;;;5093996;28;20052;-73
2022/03/13 09:19:08;;;;;;;15.40;9.33;;;10.00;99.20;;;;;;5093750;28;20118;-73
2022/03/13 09:21:38;;;;;;;13.93;9.27;;;10.20;98.80;;;;;;5093230;28;20657;-72
2022/03/13 09:24:08;;;;;;;13.40;8.88;;;10.30;97.70;;;;;;5093899;28;20051;-73
2022/03/13 09:26:35;;;;;;;14.48;8.80;;;10.40;97.60;;;;;;5094153;28;20055;-73
2022/03/13 09:29:04;;;;;;;11.90;8.23;;;10.50;98.00;;;;;;5092845;28;20081;-75
2022/03/13 09:31:30;;;;;;;14.20;9.07;;;10.70;97.00;;;;;;5093464;28;20055;-75
2022/03/13 09:33:55;;;;;;;14.55;8.88;;;10.70;96.60;;;;;;5093697;28;20036;-73
2022/03/13 09:36:21;;;;;;;14.77;9.10;;;10.80;97.00;;;;;;5093730;28;20044;-72
2022/03/13 09:38:47;;;;;;;15.10;8.65;;;10.90;96.20;;;;;;5093101;28;20510;-73
2022/03/13 09:41:12;;;;;;;16.10;9.07;;;11.00;96.40;;;;;;5093631;28;20046;-75
2022/03/13 09:43:39;;;;;;;14.30;8.55;;;11.00;95.80;;;;;;5092126;28;20040;-73
2022/03/13 09:46:05;;;;;;;16.23;9.02;;;11.10;94.90;;;;;;5093482;28;20040;-73
2022/03/13 09:48:35;;;;;;;17.75;9.32;;;11.10;96.00;;;;;;5093730;28;20052;-74
2022/03/13 09:51:04;;;;;;;14.77;8.98;;;11.10;96.00;;;;;;5092142;28;20048;-74
2022/03/13 09:53:30;;;;;;;13.32;8.68;;;11.20;96.20;;;;;;5093428;28;20040;-75
2022/03/13 09:55:56;;;;;;;14.15;9.10;;;11.30;94.50;;;;;;5093219;28;20051;-75
2022/03/13 09:58:22;;;;;;;15.37;9.37;;;11.40;93.90;;;;;;5093390;28;20040;-76
2022/03/13 10:00:48;;;;;;;13.45;8.57;;;11.40;94.20;;;;;;5092956;28;20044;-74
2022/03/13 10:03:13;;;;;;;15.23;8.45;;;11.50;94.10;;;;;;5092296;28;20056;-74
2022/03/13 10:05:44;;;;;;;15.50;8.93;;;11.60;93.30;;;;;;5092299;28;20114;-74
2022/03/13 10:08:11;;;;;;;13.18;8.85;;;11.70;94.00;;;;;;5093552;28;20054;-75
2022/03/13 10:10:45;;;;;;;15.30;9.10;;;11.90;94.10;;;;;;5093732;28;20052;-71
2022/03/13 10:13:16;;;;;;;13.73;8.57;;;12.00;92.20;;;;;;5092302;28;20060;-72
2022/03/13 10:15:49;;;;;;;13.55;9.27;;;12.10;92.70;;;;;;5093604;28;20052;-74
2022/03/13 10:18:20;;;;;;;13.43;8.80;;;12.20;92.30;;;;;;5093079;28;20052;-75
2022/03/13 10:20:47;;;;;;;12.82;8.93;;;12.20;93.30;;;;;;5093459;28;20044;-74
2022/03/13 10:23:19;;;;;;;13.75;8.45;;;12.20;93.40;;;;;;5093636;28;20369;-74
2022/03/13 10:25:50;;;;;;;12.75;9.00;;;12.20;93.60;;;;;;5096426;28;20051;-76
2022/03/13 10:28:18;;;;;;;13.40;8.73;;;12.20;91.80;;;;;;5097516;28;20127;-77
2022/03/13 10:30:47;;;;;;;14.52;8.75;;;12.30;92.00;;;;;;5096070;28;20079;-75
2022/03/13 10:33:13;;;;;;;14.43;8.60;;;12.20;91.80;;;;;;5096781;28;20069;-76
2022/03/13 10:35:39;;;;;;;14.27;8.63;;;12.30;91.30;;;;;;5096883;28;20048;-74
2022/03/13 10:38:16;;;;;;;16.05;9.50;;;12.20;91.00;;;;;;5096509;28;20708;-75
2022/03/13 10:40:42;;;;;;;13.15;8.70;;;12.20;90.80;;;;;;5096895;28;20054;-75
2022/03/13 10:43:09;;;;;;;12.68;8.80;;;12.30;89.50;;;;;;5096706;28;20454;-74
2022/03/13 10:45:49;;;;;;;13.88;9.18;;;12.40;90.60;;;;;;5097100;28;20040;-75
2022/03/13 10:48:27;;;;;;;13.93;9.02;;;12.70;90.70;;;;;;5097021;28;20395;-75
2022/03/13 10:50:54;;;;;;;15.20;8.82;;;12.80;87.50;;;;;;5096862;28;20468;-74
2022/03/13 10:53:21;;;;;;;13.55;9.07;;;12.90;90.00;;;;;;5096823;28;20075;-75
2022/03/13 10:56:08;;;;;;;13.27;9.00;;;13.10;90.10;;;;;;5097055;28;20090;-74
2022/03/13 10:58:45;;;;;;;13.07;8.93;;;13.20;87.50;;;;;;5096827;28;20055;-75
2022/03/13 11:01:16;;;;;;;12.90;8.90;;;13.20;87.30;;;;;;5096864;28;20059;-75
2022/03/13 11:04:07;;;;;;;12.05;8.20;;;13.30;88.30;;;;;;5095687;28;20048;-76
2022/03/13 11:06:33;;;;;;;13.00;9.00;;;13.30;89.10;;;;;;5078815;28;20043;-76
2022/03/13 11:09:01;;;;;;;12.77;8.38;;;13.30;89.40;;;;;;5095267;28;20396;-75
2022/03/13 11:11:27;;;;;;;17.35;8.77;;;13.30;87.00;;;;;;5096368;28;20052;-74
2022/03/13 11:14:03;;;;;;;15.02;8.63;;;13.40;88.10;;;;;;5096133;28;20105;-75
2022/03/13 11:16:30;;;;;;;13.80;8.82;;;13.40;88.50;;;;;;5096375;28;20051;-75
2022/03/13 11:19:02;;;;;;;15.10;8.48;;;13.40;87.00;;;;;;5096272;28;20048;-74
2022/03/13 11:21:28;;;;;;;15.80;9.00;;;13.50;87.80;;;;;;5095297;28;20381;-73
2022/03/13 11:23:54;;;;;;;13.88;9.73;;;13.70;88.00;;;;;;5096357;28;20122;-73
2022/03/13 11:26:24;;;;;;;13.48;8.93;;;13.60;87.80;;;;;;5096242;28;20073;-75
2022/03/13 11:28:53;;;;;;;16.05;9.77;;;13.70;87.00;;;;;;5096280;28;20377;-74
2022/03/13 11:31:37;;;;;;;13.98;9.95;;;13.70;86.60;;;;;;5096074;28;20494;-75
2022/03/13 11:34:18;;;;;;;13.43;9.25;;;13.80;86.20;;;;;;5095584;28;20051;-75
2022/03/13 11:36:45;;;;;;;16.73;9.30;;;13.80;86.00;;;;;;5095702;28;20052;-74
2022/03/13 11:39:13;;;;;;;14.35;9.02;;;13.90;85.90;;;;;;5096028;28;20126;-75
2022/03/13 11:41:47;;;;;;;14.15;9.57;;;13.90;86.80;;;;;;5095814;28;20101;-76
2022/03/13 11:44:21;;;;;;;21.25;9.75;;;13.80;84.00;;;;;;5094871;28;20040;-76
2022/03/13 11:46:49;;;;;;;14.18;9.82;;;13.90;83.40;;;;;;5094947;28;20131;-76
2022/03/13 11:49:39;;;;;;;15.88;10.32;;;13.90;84.80;;;;;;5094515;28;20054;-76
2022/03/13 11:52:16;;;;;;;15.68;10.02;;;14.00;84.90;;;;;;5094704;28;20480;-75
2022/03/13 11:54:45;;;;;;;13.52;9.13;;;14.10;83.20;;;;;;5096106;28;20091;-76
2022/03/13 11:57:19;;;;;;;13.70;8.50;;;14.30;83.50;;;;;;5095739;28;20059;-75
2022/03/13 11:59:49;;;;;;;13.60;9.93;;;14.30;81.60;;;;;;5095605;28;20055;-76
2022/03/13 12:02:41;;;;;;;15.40;9.60;;;14.50;83.30;;;;;;5095575;28;20055;-77
2022/03/13 12:05:25;;;;;;;14.38;9.10;;;14.60;81.60;;;;;;5081874;28;20052;-75
2022/03/13 12:08:05;;;;;;;16.45;9.50;;;14.70;82.30;;;;;;5095409;28;20094;-76
2022/03/13 12:10:42;;;;;;;15.10;9.57;;;14.80;81.20;;;;;;5095567;28;20470;-75
2022/03/13 12:13:15;;;;;;;17.38;9.20;;;14.90;81.50;;;;;;5094992;28;20091;-76
2022/03/13 12:15:42;;;;;;;15.52;10.52;;;14.90;80.30;;;;;;5094120;28;20048;-75
2022/03/13 12:18:27;;;;;;;16.83;9.82;;;15.10;82.10;;;;;;5095601;28;20128;-77
2022/03/13 12:21:04;;;;;;;13.70;9.90;;;15.20;80.20;;;;;;5095502;28;20141;-75
2022/03/13 12:23:33;;;;;;;14.65;9.52;;;15.20;80.60;;;;;;5094951;28;20403;-77
2022/03/13 12:26:22;;;;;;;18.45;9.52;;;15.40;81.70;;;;;;5094354;28;20141;-76
2022/03/13 12:28:49;;;;;;;14.55;9.48;;;15.40;78.10;;;;;;5095094;28;20136;-76
2022/03/13 12:31:15;;;;;;;14.63;9.65;;;15.40;79.70;;;;;;5094145;28;20048;-76
2022/03/13 12:33:46;;;;;;;15.40;9.38;;;15.40;76.80;;;;;;5094903;28;20044;-77
2022/03/13 12:36:12;;;;;;;19.73;8.70;;;15.30;77.00;;;;;;5094852;28;20040;-75
2022/03/13 12:38:42;;;;;;;12.17;8.93;;;15.40;78.10;;;;;;5093968;28;20040;-76
2022/03/13 12:41:09;;;;;;;12.60;8.55;;;15.50;78.40;;;;;;5094837;28;20055;-77
2022/03/13 12:43:49;;;;;;;15.80;9.63;;;15.60;79.00;;;;;;5094829;28;20040;-76